Time;durP1;ratioP1;P1;durP2;ratioP2;P2;SDS_P1;SDS_P2;PMS_P1;PMS_P2;Temp;Humidity;BMP_temperature;BMP_pressure;BME280_temperature;BME280_humidity;BME280_pressure;Samples;Min_cycle;Max_cycle;Signal;HPM_P1;HPM_P2
2023/08/17 07:58:31;;;;;;;;;;;;;;;10.60;100.00;99767.16;5325960;23;19936;-94
2023/08/17 08:00:56;;;;;;;;;;;;;;;10.86;100.00;99765.16;5033633;28;19921;-90
2023/08/17 08:03:21;;;;;;;;;;;;;;;10.96;100.00;99768.25;5034122;28;19968;-93
2023/08/17 08:05:47;;;;;;;;;;;;;;;11.11;100.00;99756.13;5016295;28;19921;-90
2023/08/17 08:08:12;;;;;;;;;;;;;;;10.55;100.00;99763.88;5033785;28;19921;-92
2023/08/17 08:10:37;;;;;;;;;;;;;;;10.74;100.00;99761.28;5015653;28;20237;-93
2023/08/17 08:13:03;;;;;;;;;;;;;;;10.93;100.00;99763.97;5031937;28;20063;-92
2023/08/17 08:15:29;;;;;;;;;;;;;;;11.08;100.00;99763.25;5033602;28;19928;-88
2023/08/17 08:17:55;;;;;;;;;;;;;;;11.22;100.00;99764.44;5015907;28;19948;-85
2023/08/17 08:20:20;;;;;;;;;;;;;;;10.78;100.00;99769.94;5032872;28;19924;-86
2023/08/17 08:22:45;;;;;;;;;;;;;;;10.94;100.00;99765.69;5032696;28;20011;-86
2023/08/17 08:25:11;;;;;;;;;;;;;;;11.01;100.00;99772.44;5032992;28;19917;-88
2023/08/17 08:27:36;;;;;;;;;;;;;;;11.10;100.00;99773.81;5032297;28;19917;-88
2023/08/17 08:30:01;;;;;;;;;;;;;;;11.18;100.00;99770.81;5015612;28;19960;-87
2023/08/17 08:32:26;;;;;;;;;;;;;;;10.70;100.00;99765.81;5033048;28;19917;-94
2023/08/17 08:34:52;;;;;;;;;;;;;;;10.98;100.00;99764.63;5033715;28;19917;-89
2023/08/17 08:37:17;;;;;;;;;;;;;;;11.08;100.00;99765.91;5033749;28;19963;-86
2023/08/17 08:39:50;;;;;;;;;;;;;;;11.12;100.00;99763.13;5033648;28;19947;-86
2023/08/17 08:42:16;;;;;;;;;;;;;;;11.08;100.00;99762.41;5031639;28;20000;-90
2023/08/17 08:44:41;;;;;;;;;;;;;;;10.76;100.00;99761.22;5033232;28;19917;-88
2023/08/17 08:47:06;;;;;;;;;;;;;;;11.03;100.00;99753.81;5033208;28;19924;-90
2023/08/17 08:49:33;;;;;;;;;;;;;;;11.10;100.00;99763.19;5033392;28;20399;-85
2023/08/17 08:52:00;;;;;;;;;;;;;;;11.14;100.00;99761.28;5033081;28;19917;-87
2023/08/17 08:54:26;;;;;;;;;;;;;;;10.89;100.00;99763.22;5033523;28;19959;-86
2023/08/17 08:57:03;;;;;;;;;;;;;;;10.92;100.00;99762.25;5032433;28;20272;-88
2023/08/17 08:59:29;;;;;;;;;;;;;;;11.15;100.00;99757.69;5032578;28;19936;-90
2023/08/17 09:01:56;;;;;;;;;;;;;;;11.19;100.00;99764.59;5035263;28;19917;-90
2023/08/17 09:04:21;;;;;;;;;;;;;;;11.20;100.00;99760.97;5032286;28;19921;-92
2023/08/17 09:06:47;;;;;;;;;;;;;;;11.02;100.00;99758.22;5031750;28;19928;-88
2023/08/17 09:09:14;;;;;;;;;;;;;;;11.13;100.00;99749.81;5032613;28;19917;-92
2023/08/17 09:11:39;;;;;;;;;;;;;;;11.19;100.00;99744.22;5031731;28;20003;-93
2023/08/17 09:14:06;;;;;;;;;;;;;;;11.32;100.00;99744.50;5032296;28;19995;-90
2023/08/17 09:16:31;;;;;;;;;;;;;;;11.34;100.00;99745.28;5033023;28;19971;-87
2023/08/17 09:18:56;;;;;;;;;;;;;;;10.89;100.00;99746.47;5032549;28;19921;-90
2023/08/17 09:21:22;;;;;;;;;;;;;;;11.13;100.00;99755.09;5032991;28;20352;-88
2023/08/17 09:23:52;;;;;;;;;;;;;;;11.29;100.00;99752.59;5014939;28;20283;-93
2023/08/17 09:26:18;;;;;;;;;;;;;;;11.41;100.00;99753.84;5030222;28;19928;-95
2023/08/17 09:28:44;;;;;;;;;;;;;;;11.45;100.00;99764.25;5031361;28;20382;-95
2023/08/17 09:31:09;;;;;;;;;;;;;;;10.98;100.00;99761.13;5032687;28;20528;-93
2023/08/17 09:33:35;;;;;;;;;;;;;;;11.29;100.00;99775.63;5032222;28;19924;-90
2023/08/17 09:36:00;;;;;;;;;;;;;;;11.33;100.00;99788.69;5032760;28;20339;-90
2023/08/17 09:38:26;;;;;;;;;;;;;;;11.47;100.00;99795.13;5032623;28;20577;-90
2023/08/17 09:40:52;;;;;;;;;;;;;;;11.27;100.00;99788.97;5016553;28;19908;-89
2023/08/17 09:43:18;;;;;;;;;;;;;;;11.01;100.00;99779.50;5030905;28;20356;-87
2023/08/17 09:45:48;;;;;;;;;;;;;;;11.26;100.00;99785.47;5031835;28;19917;-88
2023/08/17 09:48:14;;;;;;;;;;;;;;;11.40;100.00;99794.56;5031945;28;20015;-92
2023/08/17 09:50:39;;;;;;;;;;;;;;;11.46;100.00;99804.91;5032147;28;19967;-91
2023/08/17 09:53:05;;;;;;;;;;;;;;;11.08;100.00;99800.38;5032135;28;19921;-87
2023/08/17 09:55:32;;;;;;;;;;;;;;;11.23;100.00;99797.97;5031828;28;19921;-89
2023/08/17 09:57:57;;;;;;;;;;;;;;;11.40;100.00;99789.25;5030603;28;20028;-94
2023/08/17 10:00:24;;;;;;;;;;;;;;;11.44;100.00;99786.41;5032016;28;20003;-88
2023/08/17 10:02:49;;;;;;;;;;;;;;;11.42;100.00;99788.25;5031705;28;19913;-86
2023/08/17 10:05:17;;;;;;;;;;;;;;;11.01;100.00;99783.06;5031314;28;19924;-86
2023/08/17 10:07:44;;;;;;;;;;;;;;;11.23;100.00;99787.38;5031588;28;19917;-86
2023/08/17 10:10:10;;;;;;;;;;;;;;;11.43;100.00;99799.72;5030739;28;19917;-87
2023/08/17 10:12:48;;;;;;;;;;;;;;;11.49;100.00;99807.41;5030227;28;19936;-91
2023/08/17 10:15:15;;;;;;;;;;;;;;;11.57;100.00;99809.72;5031348;28;19928;-90
2023/08/17 10:17:46;;;;;;;;;;;;;;;11.03;100.00;99802.38;5016146;28;19925;-86
2023/08/17 10:20:12;;;;;;;;;;;;;;;11.31;100.00;99785.22;5035016;28;19979;-86
2023/08/17 10:22:49;;;;;;;;;;;;;;;11.37;100.00;99774.31;5034969;28;19961;-86
2023/08/17 10:25:15;;;;;;;;;;;;;;;11.40;100.00;99776.84;5034614;28;19921;-86
2023/08/17 10:27:41;;;;;;;;;;;;;;;11.46;100.00;99786.31;5015892;28;20280;-87
2023/08/17 10:30:08;;;;;;;;;;;;;;;11.06;100.00;99780.19;5034773;28;19921;-86
2023/08/17 10:32:33;;;;;;;;;;;;;;;11.31;100.00;99784.38;5034857;28;19921;-89
2023/08/17 10:34:59;;;;;;;;;;;;;;;11.37;100.00;99776.97;5035033;28;20004;-90
2023/08/17 10:37:24;;;;;;;;;;;;;;;11.44;100.00;99766.97;5034962;28;19924;-88
2023/08/17 10:39:50;;;;;;;;;;;;;;;11.48;100.00;99763.22;5034927;28;19921;-88
2023/08/17 10:42:29;;;;;;;;;;;;;;;11.02;100.00;99768.84;5033588;28;19931;-89
2023/08/17 10:44:54;;;;;;;;;;;;;;;11.31;100.00;99758.69;5034732;28;19917;-87
2023/08/17 10:47:26;;;;;;;;;;;;;;;11.43;100.00;99750.16;5016998;28;20410;-89
2023/08/17 10:49:58;;;;;;;;;;;;;;;11.47;100.00;99753.53;5034028;28;20000;-90
2023/08/17 10:52:27;;;;;;;;;;;;;;;11.16;100.00;99776.19;5016335;28;19921;-86
2023/08/17 10:54:54;;;;;;;;;;;;;;;11.26;100.00;99776.63;5034360;28;19919;-86
2023/08/17 10:57:27;;;;;;;;;;;;;;;11.54;100.00;99788.63;5033047;28;19923;-87
2023/08/17 11:00:11;;;;;;;;;;;;;;;11.52;100.00;99803.72;5033603;28;19921;-91
2023/08/17 11:02:37;;;;;;;;;;;;;;;11.62;100.00;99784.66;5016476;28;21006;-86
2023/08/17 11:05:03;;;;;;;;;;;;;;;11.52;100.00;99750.66;5033796;28;19921;-84
2023/08/17 11:07:38;;;;;;;;;;;;;;;11.43;100.00;99736.91;5016544;28;19925;-84
2023/08/17 11:10:10;;;;;;;;;;;;;;;11.49;100.00;99750.81;5033605;28;19999;-85
2023/08/17 11:12:35;;;;;;;;;;;;;;;11.55;100.00;99761.13;5032355;28;19921;-85
2023/08/17 11:15:01;;;;;;;;;;;;;;;11.62;100.00;99783.81;5016062;28;19924;-86
2023/08/17 11:17:26;;;;;;;;;;;;;;;11.15;100.00;99803.63;5016460;28;20376;-87
2023/08/17 11:19:52;;;;;;;;;;;;;;;11.42;100.00;99814.78;5012421;28;20364;-85
2023/08/17 11:22:17;;;;;;;;;;;;;;;11.52;100.00;99819.66;5033830;28;19956;-86
2023/08/17 11:24:43;;;;;;;;;;;;;;;11.76;100.00;99826.50;5016169;28;20311;-84
2023/08/17 11:27:09;;;;;;;;;;;;;;;11.35;100.00;99817.78;5014751;28;19921;-85
2023/08/17 11:29:34;;;;;;;;;;;;;;;10.73;100.00;99810.75;5032107;28;19994;-85
2023/08/17 11:31:59;;;;;;;;;;;;;;;10.96;100.00;99805.38;5033873;28;19924;-87
2023/08/17 11:34:24;;;;;;;;;;;;;;;10.99;100.00;99799.94;5033762;28;19999;-86
2023/08/17 11:36:50;;;;;;;;;;;;;;;11.02;100.00;99805.97;5033687;28;19917;-83
2023/08/17 11:39:15;;;;;;;;;;;;;;;11.03;100.00;99799.75;5033695;28;20010;-86
2023/08/17 11:41:41;;;;;;;;;;;;;;;10.49;100.00;99801.22;5032926;28;19917;-88
2023/08/17 11:44:06;;;;;;;;;;;;;;;10.82;100.00;99806.84;5033350;28;20364;-86
2023/08/17 11:46:32;;;;;;;;;;;;;;;10.97;100.00;99807.09;5033528;28;20368;-87
2023/08/17 11:49:00;;;;;;;;;;;;;;;11.04;100.00;99804.13;5016213;28;19921;-85
2023/08/17 11:51:30;;;;;;;;;;;;;;;10.96;100.00;99800.97;5033563;28;19932;-88
2023/08/17 11:54:03;;;;;;;;;;;;;;;10.54;100.00;99791.28;5033549;28;20261;-92
2023/08/17 11:56:35;;;;;;;;;;;;;;;10.84;100.00;99791.75;5015387;28;19925;-89
2023/08/17 11:59:08;;;;;;;;;;;;;;;11.06;100.00;99788.16;5014101;28;19931;-86
2023/08/17 12:01:35;;;;;;;;;;;;;;;11.61;100.00;99784.72;5033532;28;20012;-86
2023/08/17 12:04:08;;;;;;;;;;;;;;;11.25;100.00;99764.31;5033312;28;19936;-89
2023/08/17 12:06:33;;;;;;;;;;;;;;;10.56;100.00;99760.25;5031882;28;20011;-86
2023/08/17 12:08:59;;;;;;;;;;;;;;;10.88;100.00;99753.56;5033181;28;19921;-82
2023/08/17 12:11:24;;;;;;;;;;;;;;;10.95;100.00;99738.25;5032881;28;19917;-89
2023/08/17 12:13:53;;;;;;;;;;;;;;;11.03;100.00;99732.59;5031923;28;19921;-90
2023/08/17 12:16:19;;;;;;;;;;;;;;;10.58;100.00;99729.28;5032063;28;20374;-84
2023/08/17 12:18:46;;;;;;;;;;;;;;;10.57;100.00;99724.91;5032771;28;19925;-85
2023/08/17 12:21:11;;;;;;;;;;;;;;;10.85;100.00;99718.38;5032920;28;20257;-86
2023/08/17 12:23:36;;;;;;;;;;;;;;;10.98;100.00;99732.81;5015210;28;19931;-87
2023/08/17 12:26:01;;;;;;;;;;;;;;;11.06;100.00;99733.31;5032716;28;20352;-84
2023/08/17 12:28:27;;;;;;;;;;;;;;;10.61;100.00;99726.50;5013694;28;19917;-90
2023/08/17 12:31:01;;;;;;;;;;;;;;;10.66;100.00;99715.72;5032899;28;20020;-88
2023/08/17 12:33:27;;;;;;;;;;;;;;;10.89;100.00;99714.66;5014818;28;19940;-85
2023/08/17 12:35:53;;;;;;;;;;;;;;;10.93;100.00;99715.38;5032897;28;20367;-91
2023/08/17 12:38:18;;;;;;;;;;;;;;;11.00;100.00;99707.06;5032894;28;19924;-84
2023/08/17 12:40:43;;;;;;;;;;;;;;;10.40;100.00;99693.84;5032593;28;19921;-86
2023/08/17 12:43:09;;;;;;;;;;;;;;;10.74;100.00;99684.44;5031380;28;20402;-85
2023/08/17 12:45:34;;;;;;;;;;;;;;;10.92;100.00;99682.72;5032235;28;20366;-84
2023/08/17 12:47:59;;;;;;;;;;;;;;;11.14;100.00;99671.13;5032480;28;19918;-88
2023/08/17 12:50:25;;;;;;;;;;;;;;;13.35;100.00;99663.38;5014525;28;20008;-88
2023/08/17 12:52:50;;;;;;;;;;;;;;;11.99;100.00;99657.28;5013711;28;20281;-90
2023/08/17 12:55:15;;;;;;;;;;;;;;;11.61;100.00;99647.59;5032189;28;19975;-88
2023/08/17 12:57:40;;;;;;;;;;;;;;;11.44;100.00;99635.16;5013155;28;19983;-88
2023/08/17 13:00:06;;;;;;;;;;;;;;;11.14;100.00;99631.34;5014091;28;19948;-88
2023/08/17 13:02:31;;;;;;;;;;;;;;;10.69;100.00;99625.44;5032249;28;19917;-88
2023/08/17 13:05:00;;;;;;;;;;;;;;;10.86;100.00;99635.28;5014468;28;19917;-93
2023/08/17 13:07:25;;;;;;;;;;;;;;;10.97;100.00;99627.69;5014147;28;20360;-89
2023/08/17 13:09:50;;;;;;;;;;;;;;;10.99;100.00;99620.53;5032119;28;19928;-88
2023/08/17 13:12:18;;;;;;;;;;;;;;;10.46;100.00;99619.41;5030799;28;20372;-92
2023/08/17 13:14:43;;;;;;;;;;;;;;;10.66;100.00;99625.63;5013407;28;19917;-88
2023/08/17 13:17:08;;;;;;;;;;;;;;;10.85;100.00;99633.56;5014273;28;19939;-88
2023/08/17 13:19:33;;;;;;;;;;;;;;;10.88;100.00;99642.25;5031881;28;19921;-88
2023/08/17 13:21:59;;;;;;;;;;;;;;;10.49;100.00;99642.25;5031690;28;20013;-88
2023/08/17 13:24:24;;;;;;;;;;;;;;;10.39;100.00;99638.28;5031800;28;19921;-88
2023/08/17 13:26:52;;;;;;;;;;;;;;;10.66;100.00;99650.31;5030434;28;19955;-88
2023/08/17 13:29:18;;;;;;;;;;;;;;;10.79;100.00;99655.06;5014026;28;19960;-87
2023/08/17 13:31:43;;;;;;;;;;;;;;;10.92;100.00;99658.00;5013302;28;19963;-87
2023/08/17 13:34:11;;;;;;;;;;;;;;;10.32;100.00;99643.88;5014132;28;19924;-87
2023/08/17 13:36:36;;;;;;;;;;;;;;;10.59;100.00;99643.56;5031702;28;19925;-87
2023/08/17 13:39:02;;;;;;;;;;;;;;;10.67;100.00;99646.75;5031954;28;19925;-87
2023/08/17 13:41:27;;;;;;;;;;;;;;;10.80;100.00;99648.81;5013870;28;19917;-88
2023/08/17 13:43:52;;;;;;;;;;;;;;;10.42;100.00;99643.44;5030440;28;19975;-88
2023/08/17 13:46:18;;;;;;;;;;;;;;;10.44;100.00;99641.63;5013895;28;20000;-88
2023/08/17 13:48:43;;;;;;;;;;;;;;;10.64;100.00;99641.59;5031591;28;19921;-89
2023/08/17 13:51:08;;;;;;;;;;;;;;;10.81;100.00;99643.44;5013953;28;19921;-88
2023/08/17 13:53:34;;;;;;;;;;;;;;;10.63;100.00;99634.56;5035480;28;19924;-88
2023/08/17 13:55:59;;;;;;;;;;;;;;;10.61;100.00;99631.13;5017677;28;19972;-89
2023/08/17 13:58:24;;;;;;;;;;;;;;;10.81;100.00;99627.53;5015391;28;19960;-89
2023/08/17 14:00:49;;;;;;;;;;;;;;;10.88;100.00;99636.94;5017455;28;19921;-88
2023/08/17 14:03:15;;;;;;;;;;;;;;;10.81;100.00;99638.16;5016637;28;19949;-88
2023/08/17 14:05:40;;;;;;;;;;;;;;;10.57;100.00;99633.97;5016989;28;19987;-90
2023/08/17 14:08:06;;;;;;;;;;;;;;;11.12;100.00;99627.88;5034446;28;20376;-88
2023/08/17 14:10:33;;;;;;;;;;;;;;;11.24;100.00;99630.81;5035129;28;19917;-89
2023/08/17 14:12:58;;;;;;;;;;;;;;;11.11;100.00;99627.03;5033973;28;19944;-87
2023/08/17 14:15:23;;;;;;;;;;;;;;;10.43;100.00;99618.69;5034972;28;20356;-88
2023/08/17 14:17:48;;;;;;;;;;;;;;;10.59;100.00;99621.50;5035024;28;20295;-87
2023/08/17 14:20:17;;;;;;;;;;;;;;;10.75;100.00;99622.53;5035062;28;20372;-86
2023/08/17 14:22:42;;;;;;;;;;;;;;;10.77;100.00;99614.50;5034940;28;20368;-88
2023/08/17 14:25:07;;;;;;;;;;;;;;;10.64;100.00;99611.56;5017275;28;20524;-88
2023/08/17 14:27:33;;;;;;;;;;;;;;;10.35;100.00;99606.69;5013318;28;21915;-88
2023/08/17 14:30:01;;;;;;;;;;;;;;;10.54;100.00;99603.19;5030682;28;20418;-88
2023/08/17 14:32:26;;;;;;;;;;;;;;;10.84;100.00;99605.34;5016642;28;19925;-87
2023/08/17 14:34:51;;;;;;;;;;;;;;;10.89;100.00;99603.34;5034667;28;20796;-87
2023/08/17 14:37:17;;;;;;;;;;;;;;;10.19;100.00;99595.00;5031996;28;20304;-87
2023/08/17 14:39:42;;;;;;;;;;;;;;;10.56;100.00;99589.84;5033256;28;19925;-88
2023/08/17 14:42:07;;;;;;;;;;;;;;;10.65;100.00;99586.78;5031454;28;20364;-88
2023/08/17 14:44:32;;;;;;;;;;;;;;;10.79;100.00;99587.00;5016066;28;20024;-88
2023/08/17 14:46:58;;;;;;;;;;;;;;;10.32;100.00;99582.06;5032725;28;19921;-87
2023/08/17 14:49:26;;;;;;;;;;;;;;;10.39;100.00;99582.66;5034744;28;20390;-91
2023/08/17 14:51:51;;;;;;;;;;;;;;;10.66;100.00;99576.13;5011458;28;19924;-88
2023/08/17 14:54:16;;;;;;;;;;;;;;;10.78;100.00;99579.97;5017159;28;20000;-87
2023/08/17 14:56:42;;;;;;;;;;;;;;;10.88;100.00;99577.75;5033604;28;20368;-89
2023/08/17 14:59:07;;;;;;;;;;;;;;;10.50;100.00;99572.47;5033745;28;19997;-89
2023/08/17 15:01:32;;;;;;;;;;;;;;;10.69;100.00;99575.09;5034661;28;20280;-89
2023/08/17 15:03:57;;;;;;;;;;;;;;;10.74;100.00;99578.41;5033079;28;19917;-87
2023/08/17 15:06:24;;;;;;;;;;;;;;;10.78;100.00;99574.69;5034255;28;20387;-87
2023/08/17 15:08:50;;;;;;;;;;;;;;;10.25;100.00;99568.25;5014630;28;19970;-87
2023/08/17 15:11:15;;;;;;;;;;;;;;;10.58;100.00;99570.31;5030052;28;19987;-86
2023/08/17 15:13:40;;;;;;;;;;;;;;;10.62;100.00;99563.94;5030128;28;20539;-88
2023/08/17 15:16:07;;;;;;;;;;;;;;;10.76;100.00;99576.53;5014646;28;19929;-88
2023/08/17 15:18:32;;;;;;;;;;;;;;;10.52;100.00;99566.16;5013022;28;19929;-88
2023/08/17 15:21:00;;;;;;;;;;;;;;;10.42;100.00;99566.63;5014086;28;19928;-85
2023/08/17 15:23:29;;;;;;;;;;;;;;;10.63;100.00;99564.81;5016628;28;19967;-83
2023/08/17 15:25:54;;;;;;;;;;;;;;;10.78;100.00;99568.53;5014409;28;19921;-86
2023/08/17 15:28:19;;;;;;;;;;;;;;;10.86;100.00;99558.41;5028175;28;19921;-86
2023/08/17 15:30:44;;;;;;;;;;;;;;;10.41;100.00;99562.28;5015162;28;20261;-83
2023/08/17 15:33:12;;;;;;;;;;;;;;;10.77;100.00;99564.16;5031185;28;20391;-84
2023/08/17 15:35:37;;;;;;;;;;;;;;;10.83;100.00;99566.50;5016104;28;19968;-88
2023/08/17 15:38:02;;;;;;;;;;;;;;;10.96;100.00;99565.00;5025307;28;20453;-88
2023/08/17 15:40:28;;;;;;;;;;;;;;;11.55;100.00;99559.47;5028252;28;19925;-87
2023/08/17 15:42:53;;;;;;;;;;;;;;;10.90;100.00;99563.50;5012215;28;19968;-88
2023/08/17 15:45:20;;;;;;;;;;;;;;;10.86;100.00;99555.75;5013237;28;20530;-87
2023/08/17 15:47:45;;;;;;;;;;;;;;;10.87;100.00;99550.38;5015585;28;19921;-86
2023/08/17 15:50:14;;;;;;;;;;;;;;;10.71;100.00;99552.91;5012722;28;20435;-91
2023/08/17 15:52:39;;;;;;;;;;;;;;;10.35;100.00;99542.22;5012891;28;19944;-86
2023/08/17 15:55:04;;;;;;;;;;;;;;;10.59;100.00;99542.03;5014203;28;19921;-90
2023/08/17 15:57:30;;;;;;;;;;;;;;;10.64;100.00;99540.03;5013898;28;19917;-87
2023/08/17 15:59:55;;;;;;;;;;;;;;;10.73;100.00;99535.13;5015406;28;19928;-90
2023/08/17 16:02:20;;;;;;;;;;;;;;;10.25;100.00;99527.69;5015646;28;19921;-84
2023/08/17 16:04:46;;;;;;;;;;;;;;;10.41;100.00;99535.81;5015275;28;19965;-90
2023/08/17 16:07:12;;;;;;;;;;;;;;;10.58;100.00;99535.88;4998432;28;20450;-87
2023/08/17 16:09:37;;;;;;;;;;;;;;;10.64;100.00;99529.41;4994175;28;19925;-87
2023/08/17 16:12:03;;;;;;;;;;;;;;;10.56;100.00;99531.56;5011709;28;19964;-85
2023/08/17 16:14:28;;;;;;;;;;;;;;;10.29;100.00;99524.81;5012447;28;19957;-88
2023/08/17 16:16:53;;;;;;;;;;;;;;;10.55;100.00;99530.72;4995428;28;19940;-88
2023/08/17 16:19:19;;;;;;;;;;;;;;;10.66;100.00;99527.59;5014109;28;19918;-85
2023/08/17 16:21:45;;;;;;;;;;;;;;;10.70;100.00;99531.78;5013080;28;19992;-88
2023/08/17 16:24:11;;;;;;;;;;;;;;;10.09;100.00;99524.84;5012827;28;20380;-87
2023/08/17 16:26:36;;;;;;;;;;;;;;;10.50;100.00;99530.09;5012900;28;19917;-85
2023/08/17 16:29:04;;;;;;;;;;;;;;;10.62;100.00;99526.84;5011544;28;20027;-94
2023/08/17 16:31:32;;;;;;;;;;;;;;;10.67;100.00;99529.28;4995334;28;19917;-89
2023/08/17 16:33:57;;;;;;;;;;;;;;;10.59;100.00;99532.28;4994733;28;19921;-83
2023/08/17 16:36:22;;;;;;;;;;;;;;;10.39;100.00;99524.41;4979174;28;20304;-88
2023/08/17 16:38:48;;;;;;;;;;;;;;;10.57;100.00;99528.84;4995002;28;19980;-89
2023/08/17 16:41:13;;;;;;;;;;;;;;;10.69;100.00;99538.00;4995100;28;19918;-86
2023/08/17 16:43:38;;;;;;;;;;;;;;;10.82;100.00;99541.81;4993890;28;19943;-88
2023/08/17 16:46:06;;;;;;;;;;;;;;;10.40;100.00;99532.28;4995047;28;20022;-90
2023/08/17 16:48:31;;;;;;;;;;;;;;;10.63;100.00;99527.72;4994882;28;19917;-89
2023/08/17 16:50:59;;;;;;;;;;;;;;;10.79;100.00;99527.84;4993593;28;19927;-89
2023/08/17 16:53:25;;;;;;;;;;;;;;;10.80;100.00;99537.50;5012607;28;19917;-88
2023/08/17 16:55:53;;;;;;;;;;;;;;;10.40;100.00;99526.13;5012415;28;19921;-89
2023/08/17 16:58:18;;;;;;;;;;;;;;;10.57;100.00;99528.00;4993627;28;19968;-86
2023/08/17 17:00:44;;;;;;;;;;;;;;;10.64;100.00;99530.31;4994809;28;19917;-86
2023/08/17 17:03:09;;;;;;;;;;;;;;;10.86;100.00;99526.59;4990381;28;19964;-85
2023/08/17 17:05:34;;;;;;;;;;;;;;;10.85;100.00;99524.88;4994169;28;19925;-87
2023/08/17 17:08:00;;;;;;;;;;;;;;;10.48;100.00;99524.88;4993449;28;19943;-87
2023/08/17 17:10:25;;;;;;;;;;;;;;;10.76;100.00;99528.84;4993817;28;20292;-87
2023/08/17 17:12:50;;;;;;;;;;;;;;;10.81;100.00;99513.56;4989888;28;20381;-85
2023/08/17 17:15:15;;;;;;;;;;;;;;;11.00;100.00;99521.50;4991291;28;19929;-86
2023/08/17 17:17:41;;;;;;;;;;;;;;;10.49;100.00;99520.41;4990211;28;20439;-87
2023/08/17 17:20:06;;;;;;;;;;;;;;;10.78;100.00;99512.88;4992017;28;19965;-86
2023/08/17 17:22:32;;;;;;;;;;;;;;;10.93;100.00;99521.88;4990334;28;20380;-88
2023/08/17 17:24:57;;;;;;;;;;;;;;;11.05;100.00;99521.28;5011978;28;20352;-88
2023/08/17 17:27:22;;;;;;;;;;;;;;;10.87;100.00;99517.75;4994610;28;19960;-87
2023/08/17 17:29:48;;;;;;;;;;;;;;;10.85;100.00;99515.16;4994028;28;19921;-89
2023/08/17 17:32:14;;;;;;;;;;;;;;;10.99;100.00;99525.09;4998682;28;20377;-90
2023/08/17 17:34:39;;;;;;;;;;;;;;;11.11;100.00;99522.78;5012993;28;19921;-86
2023/08/17 17:37:04;;;;;;;;;;;;;;;11.17;100.00;99523.34;5012982;28;19928;-88
2023/08/17 17:39:32;;;;;;;;;;;;;;;10.84;100.00;99523.19;5015716;28;19928;-89
2023/08/17 17:41:58;;;;;;;;;;;;;;;11.01;100.00;99528.53;5014741;28;19919;-89
2023/08/17 17:44:23;;;;;;;;;;;;;;;11.15;100.00;99524.34;5015972;28;19928;-88
2023/08/17 17:46:48;;;;;;;;;;;;;;;11.30;100.00;99536.00;4998304;28;19917;-87
2023/08/17 17:49:14;;;;;;;;;;;;;;;10.84;100.00;99545.22;4997028;28;20016;-88
2023/08/17 17:51:39;;;;;;;;;;;;;;;11.02;100.00;99535.53;4997496;28;19969;-88
2023/08/17 17:54:04;;;;;;;;;;;;;;;11.18;100.00;99545.41;5015678;28;19921;-88
2023/08/17 17:56:37;;;;;;;;;;;;;;;11.30;100.00;99552.75;5014316;28;19971;-88
2023/08/17 17:59:02;;;;;;;;;;;;;;;10.95;100.00;99550.03;5011328;28;19929;-87
2023/08/17 18:01:28;;;;;;;;;;;;;;;10.93;100.00;99545.72;5012847;28;19930;-87
2023/08/17 18:03:54;;;;;;;;;;;;;;;11.08;100.00;99540.53;4996879;28;19968;-87
2023/08/17 18:06:19;;;;;;;;;;;;;;;11.21;100.00;99550.56;4993526;28;19980;-87
2023/08/17 18:08:45;;;;;;;;;;;;;;;11.34;100.00;99546.34;4997971;28;19921;-86
2023/08/17 18:11:10;;;;;;;;;;;;;;;10.77;100.00;99542.94;4996194;28;19925;-90
2023/08/17 18:13:35;;;;;;;;;;;;;;;11.08;100.00;99542.34;4996535;28;20004;-86
2023/08/17 18:16:01;;;;;;;;;;;;;;;11.20;100.00;99541.75;4997733;28;20008;-87
2023/08/17 18:18:26;;;;;;;;;;;;;;;11.32;100.00;99550.03;4997637;28;19921;-88
2023/08/17 18:20:51;;;;;;;;;;;;;;;11.26;100.00;99545.88;4998247;28;19944;-86
2023/08/17 18:23:17;;;;;;;;;;;;;;;11.09;100.00;99544.06;5015385;28;19944;-87
2023/08/17 18:25:46;;;;;;;;;;;;;;;11.23;100.00;99548.69;4997048;28;19917;-85
2023/08/17 18:28:11;;;;;;;;;;;;;;;11.37;100.00;99543.53;5013684;28;19928;-86
2023/08/17 18:30:36;;;;;;;;;;;;;;;11.40;100.00;99543.38;5015201;28;19921;-88
2023/08/17 18:33:02;;;;;;;;;;;;;;;11.00;100.00;99548.00;5014911;28;20464;-88
2023/08/17 18:35:27;;;;;;;;;;;;;;;11.20;100.00;99549.69;5015340;28;19921;-89
2023/08/17 18:37:52;;;;;;;;;;;;;;;11.36;100.00;99549.81;5014584;28;20008;-89
2023/08/17 18:40:20;;;;;;;;;;;;;;;11.45;100.00;99554.66;5014829;28;20056;-90
2023/08/17 18:42:48;;;;;;;;;;;;;;;11.37;100.00;99555.97;4996099;28;19968;-89
2023/08/17 18:45:14;;;;;;;;;;;;;;;11.12;100.00;99561.59;5011161;28;20396;-85
2023/08/17 18:47:40;;;;;;;;;;;;;;;11.30;100.00;99566.03;4995248;28;20402;-85
2023/08/17 18:50:05;;;;;;;;;;;;;;;11.41;100.00;99565.50;4992163;28;19921;-85
2023/08/17 18:52:31;;;;;;;;;;;;;;;13.97;100.00;99567.47;4992672;28;20342;-87
2023/08/17 18:54:56;;;;;;;;;;;;;;;11.78;100.00;99572.44;5009442;28;19925;-87
2023/08/17 18:57:22;;;;;;;;;;;;;;;11.52;100.00;99567.59;5011505;28;19925;-86
2023/08/17 18:59:47;;;;;;;;;;;;;;;11.38;100.00;99563.84;4995280;28;20004;-88
2023/08/17 19:02:12;;;;;;;;;;;;;;;11.32;100.00;99561.50;5013377;28;19921;-87
2023/08/17 19:04:38;;;;;;;;;;;;;;;10.72;100.00;99564.34;4994747;28;19925;-87
2023/08/17 19:07:04;;;;;;;;;;;;;;;10.85;100.00;99565.53;4996441;28;20369;-86
2023/08/17 19:09:31;;;;;;;;;;;;;;;10.87;100.00;99568.09;4995974;28;19924;-84
2023/08/17 19:11:56;;;;;;;;;;;;;;;10.95;100.00;99565.09;5011528;28;20308;-86
2023/08/17 19:14:21;;;;;;;;;;;;;;;10.99;100.00;99566.63;4994558;28;19922;-85
2023/08/17 19:16:46;;;;;;;;;;;;;;;10.40;100.00;99557.91;4996804;28;20261;-86
2023/08/17 19:19:12;;;;;;;;;;;;;;;10.68;100.00;99568.94;4995031;28;19971;-83
2023/08/17 19:21:37;;;;;;;;;;;;;;;10.87;100.00;99573.41;4994850;28;19939;-86
2023/08/17 19:24:02;;;;;;;;;;;;;;;10.89;100.00;99582.97;4993837;28;19932;-84
2023/08/17 19:26:28;;;;;;;;;;;;;;;10.53;100.00;99582.94;4994052;28;19932;-87
2023/08/17 19:28:53;;;;;;;;;;;;;;;10.49;100.00;99570.75;4993081;28;19925;-85
2023/08/17 19:31:18;;;;;;;;;;;;;;;10.67;100.00;99572.56;5013071;28;19917;-87
2023/08/17 19:33:43;;;;;;;;;;;;;;;10.80;100.00;99582.56;4995341;28;19969;-85
2023/08/17 19:36:09;;;;;;;;;;;;;;;10.84;100.00;99576.19;4993995;28;19949;-88
2023/08/17 19:38:34;;;;;;;;;;;;;;;10.40;100.00;99579.09;4995783;28;19932;-86
2023/08/17 19:41:00;;;;;;;;;;;;;;;10.59;100.00;99573.81;5011471;28;19918;-87
2023/08/17 19:43:25;;;;;;;;;;;;;;;10.71;100.00;99575.91;5012195;28;19961;-84
2023/08/17 19:45:50;;;;;;;;;;;;;;;10.82;100.00;99575.41;5013768;28;19960;-86
2023/08/17 19:48:15;;;;;;;;;;;;;;;10.89;100.00;99577.69;5013512;28;19921;-87
2023/08/17 19:50:41;;;;;;;;;;;;;;;10.49;100.00;99576.03;4995215;28;19917;-89
2023/08/17 19:53:06;;;;;;;;;;;;;;;10.64;100.00;99580.66;4995799;28;20088;-89
2023/08/17 19:55:31;;;;;;;;;;;;;;;10.69;100.00;99577.75;4996033;28;19918;-86
2023/08/17 19:57:59;;;;;;;;;;;;;;;10.86;100.00;99588.41;5012063;28;19940;-85
2023/08/17 20:00:25;;;;;;;;;;;;;;;10.59;100.00;99581.78;5013325;28;19921;-86
2023/08/17 20:02:52;;;;;;;;;;;;;;;10.49;100.00;99586.63;5013416;28;19929;-87
2023/08/17 20:05:18;;;;;;;;;;;;;;;10.69;100.00;99581.28;5008559;28;19925;-85
2023/08/17 20:07:43;;;;;;;;;;;;;;;10.79;100.00;99594.97;5013289;28;19921;-88
2023/08/17 20:10:20;;;;;;;;;;;;;;;10.89;100.00;99596.22;4995495;28;19923;-89
2023/08/17 20:12:45;;;;;;;;;;;;;;;10.48;100.00;99593.72;5009346;28;19968;-88
2023/08/17 20:15:10;;;;;;;;;;;;;;;10.64;100.00;99583.28;5013027;28;20372;-84
2023/08/17 20:17:35;;;;;;;;;;;;;;;10.78;100.00;99579.13;5012674;28;19928;-88
2023/08/17 20:20:01;;;;;;;;;;;;;;;10.86;100.00;99588.41;5012760;28;19921;-88
2023/08/17 20:22:26;;;;;;;;;;;;;;;10.99;100.00;99593.16;4993960;28;19996;-88
2023/08/17 20:24:51;;;;;;;;;;;;;;;10.48;100.00;99588.44;5011821;28;19929;-88
2023/08/17 20:27:17;;;;;;;;;;;;;;;10.78;100.00;99590.56;4992404;28;19992;-87